Penticton, Canada
Current Conditions -  °F | °C
As of 9:00 AM on Wednesday 26 Nov 2014 (Local Time) from CYYF Reporting Station
Rain Showers Rain Showers  
Wind Chill: 28°   Ceiling: 1600
Heat Index: 36°   Visibility: 6mi
Dew Point: 34°   Wind: 12mph
Humidity: 93%   Direction: 170°S
Pressure: 30.14"   Gusts: NA
Location:  49.5°N, 119.59°W
Report Text: CYYF 261700Z 17010KT 6SM VCSH SCT004 OVC016 02/01 A3014 RMK SF4SF4 SLP221
Loading
Personal Weather Stations






























Interactive Weather Map New forecast layout! Learn more

10-Day Weather Forecast

Advertisements
Track Severe Weather on mobile